Time;durP1;ratioP1;P1;durP2;ratioP2;P2;SDS_P1;SDS_P2;PMS_P1;PMS_P2;Temp;Humidity;BMP_temperature;BMP_pressure;BME280_temperature;BME280_humidity;BME280_pressure;Samples;Min_cycle;Max_cycle;Signal;HPM_P1;HPM_P2
2022/05/27 00:01:49;;;;;;;5.10;2.20;;;;;;;21.69;55.19;100971.75;4957763;28;20462;-71
2022/05/27 00:04:14;;;;;;;4.57;1.90;;;;;;;21.69;55.13;100959.41;5009502;28;20189;-70
2022/05/27 00:06:40;;;;;;;4.90;2.20;;;;;;;21.68;54.86;100955.69;4990909;28;20580;-70
2022/05/27 00:09:05;;;;;;;5.30;2.17;;;;;;;21.68;54.88;100952.81;5008183;28;20651;-73
2022/05/27 00:11:31;;;;;;;4.60;2.43;;;;;;;21.68;55.08;100955.69;5009409;28;20170;-72
2022/05/27 00:13:56;;;;;;;6.13;2.40;;;;;;;21.68;54.99;100951.97;4976062;28;20184;-73
2022/05/27 00:16:22;;;;;;;5.73;2.33;;;;;;;21.66;54.72;100946.63;4994296;28;20203;-73
2022/05/27 00:18:47;;;;;;;4.37;2.20;;;;;;;21.66;54.91;100945.78;4995432;28;20180;-70
2022/05/27 00:21:13;;;;;;;5.23;2.30;;;;;;;21.66;54.49;100943.75;4994859;28;20651;-70
2022/05/27 00:23:39;;;;;;;5.77;2.43;;;;;;;21.66;54.76;100937.16;4995980;28;20168;-73
2022/05/27 00:26:04;;;;;;;3.80;2.10;;;;;;;21.66;54.66;100938.00;4995905;28;20210;-72
2022/05/27 00:28:30;;;;;;;4.33;1.70;;;;;;;21.65;54.79;100938.38;4979212;28;20177;-75
2022/05/27 00:30:55;;;;;;;3.10;1.80;;;;;;;21.65;54.48;100941.25;4995518;28;20172;-70
2022/05/27 00:33:21;;;;;;;3.47;1.87;;;;;;;21.64;54.45;100940.44;5012092;28;20164;-70
2022/05/27 00:35:46;;;;;;;4.90;2.27;;;;;;;21.65;54.90;100938.38;5005518;28;20181;-70
2022/05/27 00:38:12;;;;;;;4.40;2.03;;;;;;;21.63;54.61;100938.75;4992279;28;20173;-72
2022/05/27 00:40:48;;;;;;;2.70;1.70;;;;;;;21.63;54.47;100935.88;4991932;28;20609;-70
2022/05/27 00:43:13;;;;;;;5.10;1.80;;;;;;;21.63;54.66;100938.75;4975512;28;20592;-74
2022/05/27 00:45:41;;;;;;;6.80;2.03;;;;;;;21.63;54.76;100935.06;4960428;28;20578;-73
2022/05/27 00:48:10;;;;;;;3.20;1.80;;;;;;;21.63;54.66;100935.88;4959851;28;20250;-71
2022/05/27 00:50:36;;;;;;;4.27;1.90;;;;;;;21.61;54.54;100941.19;4976162;28;20503;-72
2022/05/27 00:53:03;;;;;;;4.37;1.63;;;;;;;21.62;54.62;100937.09;5009390;28;20416;-70
2022/05/27 00:55:31;;;;;;;4.17;1.70;;;;;;;21.62;54.58;100934.22;4976283;28;20788;-73
2022/05/27 00:58:07;;;;;;;6.13;2.40;;;;;;;21.61;54.48;100941.19;4975520;28;20924;-71
2022/05/27 01:00:33;;;;;;;6.47;2.40;;;;;;;21.60;54.64;100933.81;4994200;28;20423;-70
2022/05/27 01:02:58;;;;;;;3.90;1.77;;;;;;;21.60;54.58;100933.81;4979324;28;20455;-72
2022/05/27 01:05:24;;;;;;;3.23;1.67;;;;;;;21.60;54.39;100928.06;4963267;28;20631;-72
2022/05/27 01:07:55;;;;;;;4.57;1.97;;;;;;;21.60;54.17;100928.06;4979601;28;20188;-73
2022/05/27 01:10:20;;;;;;;4.90;1.90;;;;;;;21.59;54.78;100929.28;4963949;28;20435;-73
2022/05/27 01:13:04;;;;;;;4.40;2.07;;;;;;;21.59;54.60;100935.03;4995740;28;20416;-74
2022/05/27 01:15:39;;;;;;;3.20;1.53;;;;;;;21.59;54.33;100923.53;4995789;28;20169;-70
2022/05/27 01:20:18;;;;;;;4.70;1.83;;;;;;;21.59;54.31;100923.53;5013446;28;20403;-70
2022/05/27 01:21:25;;;;;;;2.93;1.23;;;;;;;21.58;54.15;100926.78;4998984;28;20946;-70
2022/05/27 01:24:04;;;;;;;4.10;1.70;;;;;;;21.57;54.35;100919.38;4980179;28;20495;-73
2022/05/27 01:27:09;;;;;;;3.90;1.73;;;;;;;21.56;54.68;100918.53;4979373;28;20451;-73
2022/05/27 01:30:00;;;;;;;4.20;1.83;;;;;;;21.57;54.16;100919.38;5013214;28;20434;-70
2022/05/27 01:33:00;;;;;;;2.60;1.50;;;;;;;21.56;54.57;100921.41;4975292;28;20428;-72
2022/05/27 01:35:44;;;;;;;2.70;1.50;;;;;;;21.55;54.47;100918.91;4989278;28;20934;-73
2022/05/27 01:38:15;;;;;;;4.70;1.50;;;;;;;21.54;54.23;100929.59;4995368;28;20835;-72
2022/05/27 01:40:56;;;;;;;5.73;2.00;;;;;;;21.54;54.54;100918.09;5012438;28;20450;-72
2022/05/27 01:43:45;;;;;;;4.77;1.90;;;;;;;21.54;54.10;100928.75;5012863;28;20899;-72
2022/05/27 01:46:15;;;;;;;4.10;1.90;;;;;;;21.54;54.33;100923.00;4982994;28;20455;-70
2022/05/27 01:48:55;;;;;;;3.10;1.87;;;;;;;21.54;54.52;100923.84;4993973;28;20455;-70
2022/05/27 01:51:33;;;;;;;4.20;1.90;;;;;;;21.53;54.70;100916.44;5009856;28;20449;-72
2022/05/27 01:54:06;;;;;;;3.70;1.60;;;;;;;21.53;54.23;100910.69;4993859;28;20416;-70
2022/05/27 01:56:37;;;;;;;2.70;1.70;;;;;;;21.53;54.04;100910.69;4994824;28;20412;-70
2022/05/27 01:59:14;;;;;;;5.20;2.10;;;;;;;21.52;54.44;100909.03;5011005;28;20447;-70
2022/05/27 02:01:45;;;;;;;2.70;1.40;;;;;;;21.52;54.07;100914.78;4961710;28;20486;-72
2022/05/27 02:04:19;;;;;;;4.33;1.40;;;;;;;21.52;53.98;100914.78;4961963;28;20847;-73
2022/05/27 02:06:50;;;;;;;4.67;1.60;;;;;;;21.53;54.25;100915.63;4994885;28;20484;-72
2022/05/27 02:09:20;;;;;;;2.80;1.50;;;;;;;21.52;54.15;100914.78;4978770;28;20443;-73
2022/05/27 02:11:48;;;;;;;3.00;1.63;;;;;;;21.51;54.39;100904.50;4992272;28;20431;-73
2022/05/27 02:14:19;;;;;;;4.50;1.80;;;;;;;21.52;53.99;100916.84;4978350;28;20424;-72
2022/05/27 02:16:48;;;;;;;3.40;1.53;;;;;;;21.51;54.06;100909.41;4967125;28;20434;-71
2022/05/27 02:19:32;;;;;;;2.57;1.50;;;;;;;21.51;54.08;100906.53;4979011;28;20784;-70
2022/05/27 02:22:10;;;;;;;3.90;1.90;;;;;;;21.50;54.09;100905.72;4980111;28;20911;-70
2022/05/27 02:24:42;;;;;;;2.90;1.67;;;;;;;21.49;54.30;100909.81;4978884;28;20871;-70
2022/05/27 02:27:14;;;;;;;3.10;1.70;;;;;;;21.48;54.53;100902.38;4963160;28;20464;-70
2022/05/27 02:29:41;;;;;;;3.30;1.40;;;;;;;21.48;54.31;100902.38;4977862;28;20422;-73
2022/05/27 02:32:13;;;;;;;3.10;1.23;;;;;;;21.48;54.15;100901.59;4994389;28;20424;-72
2022/05/27 02:35:10;;;;;;;3.40;1.83;;;;;;;21.47;53.97;100897.88;4994439;28;20408;-73
2022/05/27 02:37:42;;;;;;;3.00;1.50;;;;;;;21.47;54.10;100900.75;4983684;28;20842;-73
2022/05/27 02:40:18;;;;;;;3.07;1.60;;;;;;;21.48;53.91;100901.59;4993723;28;20432;-73
2022/05/27 02:43:05;;;;;;;2.97;1.50;;;;;;;21.48;54.31;100907.31;4963603;28;20411;-72
2022/05/27 02:45:52;;;;;;;3.23;1.40;;;;;;;21.47;54.07;100912.22;4993842;28;20919;-70
2022/05/27 02:48:26;;;;;;;2.30;1.40;;;;;;;21.47;54.36;100906.50;4993372;28;20416;-71
2022/05/27 02:51:06;;;;;;;2.60;1.43;;;;;;;21.47;54.53;100900.75;4994157;28;20431;-70
2022/05/27 02:53:45;;;;;;;3.23;1.53;;;;;;;21.47;54.48;100900.75;5011888;28;20771;-70
2022/05/27 02:56:25;;;;;;;3.30;1.80;;;;;;;21.45;53.81;100902.34;4978117;28;20517;-70
2022/05/27 02:58:51;;;;;;;3.30;1.93;;;;;;;21.45;54.16;100908.94;4995161;28;20408;-73
2022/05/27 03:01:17;;;;;;;3.37;1.70;;;;;;;21.46;54.25;100899.09;4977954;28;20490;-72
2022/05/27 03:03:42;;;;;;;2.50;1.40;;;;;;;21.45;53.90;100902.34;5009364;28;20284;-70
2022/05/27 03:06:26;;;;;;;3.10;1.60;;;;;;;21.45;54.38;100902.34;4991465;28;20247;-72
2022/05/27 03:08:54;;;;;;;2.70;1.50;;;;;;;21.45;54.07;100905.22;4991513;28;20192;-72
2022/05/27 03:11:26;;;;;;;2.47;1.50;;;;;;;21.43;54.50;100899.03;5010420;28;20427;-70
2022/05/27 03:13:56;;;;;;;2.60;1.60;;;;;;;21.43;54.27;100911.34;4976557;28;20798;-70
2022/05/27 03:16:21;;;;;;;3.20;1.60;;;;;;;21.43;53.89;100901.91;4990109;28;20840;-70
2022/05/27 03:19:12;;;;;;;2.63;1.50;;;;;;;21.42;54.13;100892.44;4990745;28;20432;-73
2022/05/27 03:21:47;;;;;;;4.30;1.80;;;;;;;21.40;54.20;100905.53;4962178;28;20199;-70
2022/05/27 03:24:19;;;;;;;3.90;1.90;;;;;;;21.40;54.12;100909.25;4992814;28;20447;-72
2022/05/27 03:27:21;;;;;;;3.57;1.53;;;;;;;21.38;54.32;100914.53;4993047;28;20975;-75
2022/05/27 03:30:06;;;;;;;2.47;1.30;;;;;;;21.39;54.28;100916.22;4992731;28;20836;-71
2022/05/27 03:32:42;;;;;;;7.03;1.73;;;;;;;21.38;54.44;100908.78;4993278;28;21078;-73
2022/05/27 03:35:47;;;;;;;4.90;1.73;;;;;;;21.37;54.54;100900.59;4993411;28;20455;-73
2022/05/27 03:38:19;;;;;;;3.60;1.83;;;;;;;21.38;54.03;100908.78;4901010;29;20436;-75
2022/05/27 03:40:52;;;;;;;4.53;2.10;;;;;;;21.37;54.07;100906.34;4976698;28;20431;-70
2022/05/27 03:43:18;;;;;;;3.17;1.73;;;;;;;21.36;53.96;100913.28;4960387;28;20447;-72
2022/05/27 03:45:55;;;;;;;3.33;1.90;;;;;;;21.35;54.00;100915.34;4976945;28;20494;-73
2022/05/27 03:48:21;;;;;;;4.33;1.70;;;;;;;21.36;54.18;100902.63;4977006;28;20235;-73
2022/05/27 03:50:47;;;;;;;3.90;1.90;;;;;;;21.36;54.21;100919.00;4992675;28;20492;-75
2022/05/27 03:53:13;;;;;;;5.60;1.80;;;;;;;21.37;54.45;100915.75;4976939;28;20181;-72
2022/05/27 03:55:44;;;;;;;3.47;1.93;;;;;;;21.36;54.06;100908.38;5011165;28;20454;-70
2022/05/27 03:58:15;;;;;;;4.60;2.17;;;;;;;21.37;54.17;100918.63;4962804;28;20615;-72
2022/05/27 04:00:41;;;;;;;3.93;1.90;;;;;;;21.37;54.48;100912.88;4992022;28;20411;-70
2022/05/27 04:03:08;;;;;;;2.70;1.43;;;;;;;21.37;54.32;100917.81;4992240;28;20451;-73
2022/05/27 04:05:34;;;;;;;3.70;1.70;;;;;;;21.36;54.26;100921.88;4989185;28;20472;-74
2022/05/27 04:07:59;;;;;;;3.47;2.10;;;;;;;21.33;54.21;100917.75;4976002;28;20896;-70
2022/05/27 04:10:24;;;;;;;3.03;1.87;;;;;;;21.33;54.40;100922.66;4972552;28;20247;-72
2022/05/27 04:12:50;;;;;;;8.00;1.90;;;;;;;21.32;54.11;100923.91;4990287;28;20177;-70
2022/05/27 04:15:15;;;;;;;3.17;2.07;;;;;;;21.32;54.49;100924.72;4973123;28;20680;-70
2022/05/27 04:17:42;;;;;;;4.47;2.17;;;;;;;21.32;54.03;100921.03;4998047;28;20177;-70
2022/05/27 04:20:15;;;;;;;3.70;1.70;;;;;;;21.32;54.57;100924.72;5028839;28;20532;-71
2022/05/27 04:22:40;;;;;;;3.37;1.70;;;;;;;21.31;54.30;100925.94;5011888;28;20485;-72
2022/05/27 04:25:06;;;;;;;3.60;1.70;;;;;;;21.29;54.45;100922.63;5010176;28;20910;-74
2022/05/27 04:27:32;;;;;;;6.00;2.40;;;;;;;21.30;54.44;100924.28;4975996;28;20201;-72
2022/05/27 04:29:57;;;;;;;3.00;1.70;;;;;;;21.29;54.14;100918.91;4992113;28;20443;-74
2022/05/27 04:32:25;;;;;;;6.43;2.00;;;;;;;21.29;54.61;100916.88;4959809;28;20176;-70
2022/05/27 04:34:51;;;;;;;3.40;1.93;;;;;;;21.29;54.57;100916.88;4975462;28;20172;-72
2022/05/27 04:37:16;;;;;;;3.80;1.90;;;;;;;21.30;54.43;100917.69;5009491;28;20427;-73
2022/05/27 04:39:42;;;;;;;5.60;2.00;;;;;;;21.30;54.51;100926.31;4975233;28;20416;-71
2022/05/27 04:42:07;;;;;;;3.03;1.97;;;;;;;21.30;54.38;100927.16;4991791;28;20180;-70
2022/05/27 04:44:33;;;;;;;3.30;1.90;;;;;;;21.30;54.25;100935.75;4992042;28;20181;-73
2022/05/27 04:46:59;;;;;;;4.07;1.87;;;;;;;21.29;54.14;100934.09;4992404;28;20188;-71
2022/05/27 04:52:08;;;;;;;3.20;1.83;;;;;;;21.28;54.20;100917.25;4994339;28;20235;-73
2022/05/27 04:54:33;;;;;;;5.93;2.20;;;;;;;21.29;54.49;100921.78;4991602;28;20416;-71
2022/05/27 04:56:59;;;;;;;3.80;2.00;;;;;;;21.30;54.66;100930.03;4975808;28;20161;-73
2022/05/27 04:59:24;;;;;;;3.40;1.97;;;;;;;21.29;54.38;100934.09;5009605;28;20161;-74
2022/05/27 05:01:50;;;;;;;4.23;2.07;;;;;;;21.28;54.58;100932.44;4991440;28;20181;-73
2022/05/27 05:04:15;;;;;;;5.17;1.90;;;;;;;21.28;54.62;100938.16;5009563;28;20224;-72
2022/05/27 05:06:41;;;;;;;3.83;1.83;;;;;;;21.27;54.19;100927.91;4988603;28;20230;-73
2022/05/27 05:09:06;;;;;;;4.17;2.07;;;;;;;21.27;54.60;100939.38;4955862;28;20185;-72
2022/05/27 05:11:33;;;;;;;3.77;2.00;;;;;;;21.29;54.63;100939.00;4971062;28;20177;-70
2022/05/27 05:13:58;;;;;;;4.20;2.33;;;;;;;21.29;54.83;100934.09;4987355;28;20264;-70
2022/05/27 05:16:24;;;;;;;4.40;2.00;;;;;;;21.29;54.62;100934.09;4958145;28;20487;-73
2022/05/27 05:18:50;;;;;;;3.60;2.10;;;;;;;21.31;54.65;100943.16;5009707;28;20231;-73
2022/05/27 05:21:16;;;;;;;5.47;2.37;;;;;;;21.31;54.51;100946.03;5007584;28;20173;-70
2022/05/27 05:23:42;;;;;;;3.40;1.80;;;;;;;21.31;54.40;100948.91;5008133;28;20482;-73
2022/05/27 05:26:07;;;;;;;4.47;1.90;;;;;;;21.31;54.28;100939.44;5008318;28;20672;-72
2022/05/27 05:28:33;;;;;;;2.87;1.70;;;;;;;21.32;54.77;100938.25;4992289;28;20514;-70
2022/05/27 05:30:58;;;;;;;5.30;2.07;;;;;;;21.31;54.38;100943.16;4971415;28;20174;-73
2022/05/27 05:33:23;;;;;;;3.30;1.80;;;;;;;21.31;54.22;100948.91;4988220;28;20169;-73
2022/05/27 05:35:49;;;;;;;3.63;2.30;;;;;;;21.32;54.44;100949.75;4989730;28;20268;-72
2022/05/27 05:38:14;;;;;;;3.17;1.80;;;;;;;21.32;54.53;100941.94;4987681;28;20526;-73
2022/05/27 05:40:40;;;;;;;2.97;1.70;;;;;;;21.32;54.30;100941.94;4972040;28;20179;-70
2022/05/27 05:43:06;;;;;;;6.03;1.90;;;;;;;21.31;54.30;100942.31;4972461;28;20197;-72
2022/05/27 05:45:31;;;;;;;6.23;1.73;;;;;;;21.31;54.69;100951.78;4990870;28;20185;-72
2022/05/27 05:47:56;;;;;;;3.47;1.93;;;;;;;21.30;54.71;100947.25;4993258;28;20173;-72
2022/05/27 05:50:22;;;;;;;4.43;1.90;;;;;;;21.31;54.55;100937.41;4991784;28;20169;-72
2022/05/27 05:52:48;;;;;;;2.63;1.53;;;;;;;21.31;54.72;100946.03;4975163;28;20174;-73
2022/05/27 05:55:14;;;;;;;2.80;1.63;;;;;;;21.31;54.41;100946.03;4975739;28;20812;-70
2022/05/27 05:57:41;;;;;;;4.20;2.10;;;;;;;21.31;54.54;100954.66;4993032;28;20177;-73
2022/05/27 06:00:07;;;;;;;9.30;2.30;;;;;;;21.32;54.32;100944.81;4992772;28;20436;-70
2022/05/27 06:02:33;;;;;;;3.47;2.27;;;;;;;21.31;54.70;100943.16;4992667;28;20432;-70
2022/05/27 06:04:58;;;;;;;2.97;1.80;;;;;;;21.31;54.79;100940.28;4974787;28;20464;-70
2022/05/27 06:07:24;;;;;;;4.37;2.03;;;;;;;21.31;54.54;100948.91;4991215;28;20767;-73
2022/05/27 06:09:49;;;;;;;3.57;1.80;;;;;;;21.31;54.60;100945.19;4973955;28;20178;-73
2022/05/27 06:12:16;;;;;;;3.73;2.30;;;;;;;21.31;54.78;100943.16;4990578;28;20181;-73
2022/05/27 06:14:42;;;;;;;3.10;1.67;;;;;;;21.31;54.88;100954.66;4992553;28;20174;-70
2022/05/27 06:17:07;;;;;;;4.00;2.30;;;;;;;21.31;54.90;100953.81;4999194;28;20756;-70
2022/05/27 06:19:33;;;;;;;2.83;2.10;;;;;;;21.30;54.92;100946.41;4992391;28;20189;-70
2022/05/27 06:21:58;;;;;;;3.90;2.07;;;;;;;21.31;54.86;100954.66;4993127;28;20177;-72
2022/05/27 06:24:24;;;;;;;4.50;1.80;;;;;;;21.30;54.92;100941.50;4992955;28;20227;-72
2022/05/27 06:26:49;;;;;;;6.17;2.30;;;;;;;21.29;54.67;100948.47;4982538;28;20197;-70
2022/05/27 06:34:42;;;;;;;3.70;1.93;;;;;;;21.23;54.78;100957.78;4975758;28;20971;-73
2022/05/27 06:37:14;;;;;;;5.00;2.00;;;;;;;21.23;54.60;100958.59;4989419;28;20429;-73
2022/05/27 06:39:40;;;;;;;4.07;1.90;;;;;;;21.21;54.88;100963.06;4974777;28;20645;-71
2022/05/27 06:42:09;;;;;;;2.80;1.73;;;;;;;21.19;54.50;100960.59;4958079;28;20508;-72
2022/05/27 06:44:35;;;;;;;3.60;1.50;;;;;;;21.16;54.21;100957.63;4957957;28;20635;-73
2022/05/27 06:47:01;;;;;;;3.40;1.73;;;;;;;21.15;54.42;100968.31;4973055;28;20449;-70
2022/05/27 06:49:27;;;;;;;3.07;1.87;;;;;;;21.16;54.68;100969.13;4973180;28;20993;-73
2022/05/27 06:51:52;;;;;;;3.20;1.70;;;;;;;21.15;54.06;100973.22;4988891;28;20178;-71
2022/05/27 06:54:19;;;;;;;4.00;1.70;;;;;;;21.16;54.19;100969.13;4989668;28;20633;-72
2022/05/27 06:56:45;;;;;;;5.13;1.90;;;;;;;21.16;54.26;100975.72;4988538;28;20545;-70
2022/05/27 06:59:11;;;;;;;5.53;1.67;;;;;;;21.16;54.62;100975.72;4974362;28;20432;-70
2022/05/27 07:01:36;;;;;;;3.67;1.87;;;;;;;21.16;54.28;100972.84;4989955;28;20924;-73
2022/05/27 07:04:02;;;;;;;3.20;1.67;;;;;;;21.17;54.06;100979.44;4957753;28;20201;-70
2022/05/27 07:06:31;;;;;;;4.03;1.80;;;;;;;21.17;54.03;100968.75;4977973;28;20740;-70
2022/05/27 07:08:59;;;;;;;4.27;2.30;;;;;;;21.17;54.50;100977.38;4938666;28;20179;-73
2022/05/27 07:11:24;;;;;;;3.87;1.57;;;;;;;21.18;54.64;100976.16;4970045;28;21119;-72
2022/05/27 07:13:50;;;;;;;3.90;1.50;;;;;;;21.18;54.43;100978.22;4989964;28;20467;-74
2022/05/27 07:16:16;;;;;;;2.83;1.40;;;;;;;21.19;54.21;100979.84;4958918;28;20269;-72
2022/05/27 07:18:41;;;;;;;4.07;2.27;;;;;;;21.17;53.86;100980.22;4991105;28;20798;-74
2022/05/27 07:21:07;;;;;;;3.57;1.80;;;;;;;21.18;54.23;100976.16;4957494;28;20201;-73
2022/05/27 07:23:32;;;;;;;4.30;1.43;;;;;;;21.18;54.33;100964.66;4957097;28;20178;-72
2022/05/27 07:25:58;;;;;;;4.60;1.70;;;;;;;21.18;54.31;100967.53;4973696;28;20221;-70
2022/05/27 07:28:24;;;;;;;3.40;1.90;;;;;;;21.18;54.27;100967.53;4973512;28;20182;-72
2022/05/27 07:30:50;;;;;;;4.67;1.80;;;;;;;21.19;54.12;100968.38;4991136;28;20320;-70
2022/05/27 07:33:16;;;;;;;2.53;1.30;;;;;;;21.19;54.43;100962.63;4973614;28;20429;-70
2022/05/27 07:35:41;;;;;;;5.50;2.27;;;;;;;21.19;54.39;100956.88;4990766;28;20237;-71
2022/05/27 07:38:07;;;;;;;4.03;1.67;;;;;;;21.18;53.88;100955.22;4972437;28;20617;-70
2022/05/27 07:40:32;;;;;;;5.50;1.90;;;;;;;21.18;53.90;100958.09;4972208;28;20178;-73
2022/05/27 07:42:58;;;;;;;4.80;2.20;;;;;;;21.17;54.26;100965.88;4957557;28;20182;-71
2022/05/27 07:45:27;;;;;;;3.40;1.87;;;;;;;21.16;54.00;100967.09;4989238;28;20178;-72
2022/05/27 07:47:56;;;;;;;4.70;1.90;;;;;;;21.14;53.97;100963.78;4973734;28;20252;-70
2022/05/27 07:50:22;;;;;;;2.30;1.50;;;;;;;21.15;54.21;100959.69;4973288;28;20908;-73
2022/05/27 07:52:47;;;;;;;4.40;1.50;;;;;;;21.15;53.99;100956.00;4957058;28;20429;-72
2022/05/27 07:55:13;;;;;;;2.40;1.50;;;;;;;21.16;54.36;100966.25;4972712;28;20936;-71
2022/05/27 07:57:43;;;;;;;2.37;1.73;;;;;;;21.15;54.31;100953.97;4971798;28;20173;-74
2022/05/27 08:00:10;;;;;;;4.07;2.07;;;;;;;21.18;54.27;100958.09;4967169;28;20518;-70
2022/05/27 08:02:36;;;;;;;5.50;2.00;;;;;;;21.18;54.19;100950.31;4971635;28;20417;-72
2022/05/27 08:05:02;;;;;;;4.90;2.43;;;;;;;21.22;54.50;100953.25;4994083;28;20479;-70
2022/05/27 08:07:27;;;;;;;9.33;3.73;;;;;;;21.33;57.28;100951.41;4978477;28;20208;-70
2022/05/27 08:09:53;;;;;;;10.30;4.20;;;;;;;21.38;57.39;100959.69;4990510;28;20188;-72
2022/05/27 08:12:19;;;;;;;6.00;3.33;;;;;;;21.34;55.13;100956.75;4992433;28;20256;-73
2022/05/27 08:14:44;;;;;;;11.43;3.97;;;;;;;21.35;57.21;100955.53;4991595;28;20184;-72
2022/05/27 08:17:10;;;;;;;6.80;3.20;;;;;;;21.49;56.29;100964.41;4972392;28;20539;-73
2022/05/27 08:19:35;;;;;;;6.60;3.50;;;;;;;21.58;56.59;100964.94;4958863;28;20188;-70
2022/05/27 08:22:01;;;;;;;7.00;2.70;;;;;;;21.58;56.77;100964.94;4992089;28;20185;-70
2022/05/27 08:24:27;;;;;;;5.70;2.57;;;;;;;21.63;56.44;100963.81;4975917;28;20173;-73
2022/05/27 08:26:52;;;;;;;4.63;2.37;;;;;;;21.61;56.95;100964.19;4975268;28;20185;-71
2022/05/27 08:29:17;;;;;;;6.57;2.30;;;;;;;21.65;55.92;100964.25;5009647;28;20664;-72
2022/05/27 08:31:44;;;;;;;5.80;2.30;;;;;;;21.69;55.92;100968.03;5009346;28;20177;-70
2022/05/27 08:39:39;;;;;;;3.50;2.20;;;;;;;21.64;54.82;100968.34;4981071;28;20427;-73
2022/05/27 08:42:06;;;;;;;3.07;2.03;;;;;;;21.62;54.75;100970.78;4975599;28;20421;-74
2022/05/27 08:45:09;;;;;;;4.23;1.87;;;;;;;21.72;54.71;100970.16;4975797;28;20203;-73
2022/05/27 08:47:46;;;;;;;3.37;1.70;;;;;;;21.76;53.67;100963.22;5009308;28;20538;-73
2022/05/27 08:50:30;;;;;;;4.70;1.70;;;;;;;21.73;53.96;100972.63;5008159;28;20432;-73
2022/05/27 08:53:09;;;;;;;9.80;1.87;;;;;;;21.74;53.80;100965.66;4988245;28;20475;-71
2022/05/27 09:01:18;;;;;;;3.37;1.10;;;;;;;21.65;54.11;100965.09;4991695;28;20489;-73
2022/05/27 09:04:16;;;;;;;3.83;1.93;;;;;;;21.64;53.58;100977.78;4973762;28;20485;-73
2022/05/27 09:06:52;;;;;;;3.67;1.50;;;;;;;21.60;53.85;100962.53;4976313;28;20894;-71
2022/05/27 09:09:19;;;;;;;2.67;1.40;;;;;;;21.62;53.71;100962.16;4987864;28;20436;-70
2022/05/27 09:12:03;;;;;;;4.20;1.70;;;;;;;21.60;54.02;100956.78;4990274;28;20416;-72
2022/05/27 09:14:31;;;;;;;3.03;1.37;;;;;;;21.57;53.78;100971.09;5006830;28;20914;-70
2022/05/27 09:16:59;;;;;;;3.30;1.57;;;;;;;21.55;53.52;100960.00;4991186;28;20435;-73
2022/05/27 09:19:35;;;;;;;3.47;1.60;;;;;;;21.55;53.11;100968.59;4991208;28;20473;-71
2022/05/27 09:22:04;;;;;;;2.73;1.20;;;;;;;21.54;52.75;100969.00;4979626;28;20922;-70
2022/05/27 09:24:35;;;;;;;3.77;1.60;;;;;;;21.59;52.99;100968.66;5011467;28;20493;-72
2022/05/27 09:27:06;;;;;;;5.10;1.37;;;;;;;21.57;52.79;100968.22;4976764;28;20597;-73
2022/05/27 09:30:05;;;;;;;5.83;1.63;;;;;;;21.53;52.73;100965.28;4977163;28;20517;-70
2022/05/27 09:32:50;;;;;;;2.67;1.40;;;;;;;21.62;52.43;100965.03;5011671;28;20514;-71
2022/05/27 09:35:19;;;;;;;4.07;1.33;;;;;;;21.67;52.54;100961.81;4995958;28;20427;-72
2022/05/27 09:37:46;;;;;;;2.40;1.40;;;;;;;21.70;52.69;100956.16;4977713;28;20813;-71
2022/05/27 09:40:37;;;;;;;4.10;1.53;;;;;;;21.62;51.96;100954.34;4996073;28;20428;-73
2022/05/27 09:43:32;;;;;;;8.03;2.10;;;;;;;21.65;51.97;100958.50;4958884;28;20443;-72
2022/05/27 09:46:03;;;;;;;3.10;1.60;;;;;;;21.70;52.21;100961.91;4999886;28;20525;-70
2022/05/27 09:48:28;;;;;;;4.00;1.60;;;;;;;21.71;51.86;100954.09;4974739;28;20819;-71
2022/05/27 09:50:55;;;;;;;4.47;2.13;;;;;;;21.75;51.49;100937.75;4985966;28;20439;-70
2022/05/27 09:53:31;;;;;;;2.50;1.27;;;;;;;21.78;52.48;100943.53;4973455;28;20188;-70
2022/05/27 09:56:13;;;;;;;3.10;1.40;;;;;;;21.79;52.63;100945.22;4962082;28;20895;-70
2022/05/27 09:58:42;;;;;;;5.67;1.77;;;;;;;21.80;52.79;100943.16;4993434;28;20428;-71
2022/05/27 10:01:24;;;;;;;3.33;1.40;;;;;;;21.81;53.20;100939.91;4959971;28;20428;-73
2022/05/27 10:04:00;;;;;;;4.63;1.47;;;;;;;21.78;53.04;100946.41;4976706;28;20837;-74
2022/05/27 10:06:27;;;;;;;3.60;1.47;;;;;;;21.79;52.76;100941.50;4975849;28;20914;-73
2022/05/27 10:08:57;;;;;;;2.90;1.30;;;;;;;21.79;53.00;100942.34;4976376;28;20490;-71
2022/05/27 10:11:24;;;;;;;4.27;1.57;;;;;;;21.76;52.34;100943.09;4992281;28;20416;-72
2022/05/27 10:14:12;;;;;;;4.53;1.40;;;;;;;21.76;52.19;100942.25;4976874;28;20459;-72
2022/05/27 10:16:40;;;;;;;4.30;1.60;;;;;;;21.72;52.04;100936.47;5014697;28;20439;-73
2022/05/27 10:19:10;;;;;;;4.30;1.53;;;;;;;21.73;51.47;100931.56;5000184;28;20421;-71
2022/05/27 10:22:06;;;;;;;3.90;1.77;;;;;;;21.72;51.51;100936.47;4998615;28;20764;-71
2022/05/27 10:24:36;;;;;;;3.20;1.57;;;;;;;21.73;51.11;100945.94;4979006;28;20919;-72
2022/05/27 10:27:05;;;;;;;4.43;1.40;;;;;;;21.70;51.36;100946.69;4964764;28;21966;-70
2022/05/27 10:29:32;;;;;;;5.17;1.70;;;;;;;21.66;50.97;100943.75;4977257;28;20418;-69
2022/05/27 10:31:59;;;;;;;3.90;1.50;;;;;;;21.69;51.29;100943.00;4977214;28;20539;-70
2022/05/27 10:34:41;;;;;;;6.67;1.70;;;;;;;21.63;50.67;100944.50;4994215;28;20446;-72
2022/05/27 10:37:09;;;;;;;5.20;1.67;;;;;;;21.57;51.49;100948.94;4994013;28;20436;-73
2022/05/27 10:39:53;;;;;;;2.97;1.60;;;;;;;21.54;51.39;100951.75;4979776;28;20439;-71
2022/05/27 10:42:48;;;;;;;4.07;1.80;;;;;;;21.57;51.49;100951.00;4976059;28;20415;-73
2022/05/27 10:45:31;;;;;;;7.77;2.33;;;;;;;21.55;51.65;100948.50;4971346;28;20434;-73
2022/05/27 10:48:07;;;;;;;4.37;1.80;;;;;;;21.52;51.34;100942.69;4994842;28;20470;-73
2022/05/27 10:50:39;;;;;;;4.70;1.53;;;;;;;21.43;51.91;100939.25;5010207;28;20518;-72
2022/05/27 10:53:20;;;;;;;2.63;1.40;;;;;;;21.44;51.84;100941.75;4993471;28;20795;-70
2022/05/27 10:56:01;;;;;;;2.97;1.30;;;;;;;21.41;51.88;100942.50;5013110;28;20407;-72
2022/05/27 11:04:35;;;;;;;2.90;1.60;;;;;;;21.47;51.91;100940.97;4985244;28;20447;-72
2022/05/27 11:07:09;;;;;;;8.00;1.60;;;;;;;21.45;51.78;100943.41;4976925;28;20460;-70
2022/05/27 11:09:47;;;;;;;2.37;1.33;;;;;;;21.47;51.86;100932.34;4992810;28;20424;-72
2022/05/27 11:15:10;;;;;;;6.50;1.73;;;;;;;21.48;51.90;100936.88;5011148;28;20400;-70
2022/05/27 11:15:19;;;;;;;4.97;2.00;;;;;;;21.48;51.60;100933.19;5010175;28;20790;-69
2022/05/27 11:18:04;;;;;;;5.10;1.77;;;;;;;21.51;51.93;100923.78;4993134;28;20517;-71
2022/05/27 11:20:46;;;;;;;4.53;1.77;;;;;;;21.51;51.92;100920.91;5012326;28;20967;-69
2022/05/27 11:23:36;;;;;;;3.60;1.83;;;;;;;21.55;52.20;100918.91;5009760;28;21017;-71
2022/05/27 11:26:20;;;;;;;5.43;2.13;;;;;;;21.56;52.13;100926.31;4991568;28;20471;-69
2022/05/27 11:28:52;;;;;;;4.70;2.60;;;;;;;21.55;52.52;100924.66;4994777;28;20428;-70
2022/05/27 11:31:34;;;;;;;4.40;1.90;;;;;;;21.59;52.25;100920.66;4997017;28;20439;-72
2022/05/27 11:34:07;;;;;;;3.20;1.87;;;;;;;21.57;52.43;100917.31;4977077;28;20530;-72
2022/05/27 11:37:15;;;;;;;3.90;1.80;;;;;;;21.58;52.60;100913.22;4992992;28;20835;-69
2022/05/27 11:39:55;;;;;;;2.27;1.40;;;;;;;21.57;52.54;100911.56;4923111;28;20435;-72
2022/05/27 11:42:26;;;;;;;4.23;1.90;;;;;;;21.60;52.06;100916.56;5009881;28;20412;-72
2022/05/27 11:45:11;;;;;;;4.90;2.27;;;;;;;21.55;51.90;100914.00;5010192;28;20408;-72
2022/05/27 11:47:36;;;;;;;3.27;1.70;;;;;;;21.53;52.01;100912.75;4991527;28;20474;-72
2022/05/27 11:50:09;;;;;;;3.80;1.63;;;;;;;21.51;52.03;100901.63;5000866;28;20435;-72
2022/05/27 11:53:12;;;;;;;4.63;1.93;;;;;;;21.48;52.23;100913.88;4990982;28;20252;-69
2022/05/27 11:55:47;;;;;;;2.23;1.60;;;;;;;21.43;52.01;100905.59;5008593;28;20432;-71
2022/05/27 11:58:18;;;;;;;4.03;1.90;;;;;;;21.43;51.93;100910.53;4991626;28;20431;-69
2022/05/27 12:01:00;;;;;;;4.83;2.50;;;;;;;21.39;52.31;100896.13;4990704;28;20432;-72
2022/05/27 12:03:31;;;;;;;4.73;1.60;;;;;;;21.41;52.57;100902.28;4989896;28;20440;-72
2022/05/27 12:05:58;;;;;;;9.03;1.90;;;;;;;21.45;52.56;100894.56;5004262;28;20949;-70
2022/05/27 12:08:31;;;;;;;3.67;1.90;;;;;;;21.48;52.79;100895.84;4975178;28;20484;-72
2022/05/27 12:11:04;;;;;;;4.70;2.00;;;;;;;21.54;52.18;100888.53;4974610;28;20915;-73